Time;durP1;ratioP1;P1;durP2;ratioP2;P2;SDS_P1;SDS_P2;PMS_P1;PMS_P2;Temp;Humidity;BMP_temperature;BMP_pressure;BME280_temperature;BME280_humidity;BME280_pressure;Samples;Min_cycle;Max_cycle;Signal;HPM_P1;HPM_P2
2023/01/24 00:00:52;;;;;;;23.38;13.63;;;4.00;99.90;;;;;;5076424;28;20040;-71
2023/01/24 00:03:17;;;;;;;25.55;14.82;;;3.90;99.90;;;;;;5093543;28;20032;-71
2023/01/24 00:05:45;;;;;;;22.08;14.25;;;4.00;99.90;;;;;;5092983;28;20105;-71
2023/01/24 00:08:13;;;;;;;24.30;14.10;;;4.00;99.90;;;;;;5092759;28;20044;-71
2023/01/24 00:10:39;;;;;;;24.73;14.20;;;4.00;99.90;;;;;;5092869;28;20493;-71
2023/01/24 00:13:05;;;;;;;24.75;14.27;;;3.90;99.90;;;;;;5092008;28;20105;-72
2023/01/24 00:15:31;;;;;;;22.42;13.68;;;4.00;99.90;;;;;;5092673;28;20444;-72
2023/01/24 00:17:58;;;;;;;26.40;14.88;;;3.90;99.90;;;;;;5092742;28;20115;-71
2023/01/24 00:20:23;;;;;;;24.40;14.52;;;4.00;99.90;;;;;;5093068;28;20028;-71
2023/01/24 00:22:49;;;;;;;23.80;14.98;;;4.10;99.90;;;;;;5074752;28;20572;-71
2023/01/24 00:25:14;;;;;;;24.75;15.07;;;4.00;99.90;;;;;;5092462;28;20071;-71
2023/01/24 00:27:40;;;;;;;23.67;14.82;;;4.00;99.90;;;;;;5092411;28;20570;-71
2023/01/24 00:30:06;;;;;;;24.00;15.25;;;4.00;99.90;;;;;;5092612;28;20358;-71
2023/01/24 00:32:32;;;;;;;23.83;13.95;;;3.90;99.90;;;;;;5091834;28;20047;-71
2023/01/24 00:34:58;;;;;;;25.75;16.00;;;3.90;99.90;;;;;;5092202;28;20040;-71
2023/01/24 00:37:24;;;;;;;32.13;16.02;;;3.90;99.90;;;;;;5092259;28;20076;-71
2023/01/24 00:39:50;;;;;;;25.48;15.95;;;3.90;99.90;;;;;;5092147;28;20032;-71
2023/01/24 00:42:15;;;;;;;26.40;15.98;;;3.90;99.90;;;;;;5093245;28;20036;-71
2023/01/24 00:44:41;;;;;;;22.85;14.20;;;3.80;99.90;;;;;;5074822;28;20054;-71
2023/01/24 00:47:06;;;;;;;24.88;17.05;;;3.80;99.90;;;;;;5092043;28;20044;-71
2023/01/24 00:49:32;;;;;;;26.73;15.88;;;3.80;99.90;;;;;;5091956;28;20060;-71
2023/01/24 00:51:57;;;;;;;24.77;14.55;;;3.70;99.90;;;;;;5074964;28;20047;-72
2023/01/24 00:54:23;;;;;;;26.58;16.85;;;3.80;99.90;;;;;;5092110;28;20036;-71
2023/01/24 00:56:48;;;;;;;27.92;15.73;;;3.90;99.90;;;;;;5091871;28;20059;-71
2023/01/24 00:59:14;;;;;;;26.15;15.93;;;3.90;99.90;;;;;;5092031;28;20068;-71
2023/01/24 01:01:39;;;;;;;26.92;16.23;;;3.90;99.90;;;;;;5093240;28;20040;-71
2023/01/24 01:04:05;;;;;;;28.52;15.77;;;3.80;99.90;;;;;;5092415;28;20046;-71
2023/01/24 01:06:31;;;;;;;25.05;17.00;;;3.80;99.90;;;;;;5091831;28;20451;-71
2023/01/24 01:08:56;;;;;;;30.20;16.80;;;3.80;99.90;;;;;;5091524;28;20052;-71
2023/01/24 01:11:22;;;;;;;25.52;16.02;;;3.80;99.90;;;;;;5093052;28;20035;-71
2023/01/24 01:13:48;;;;;;;25.35;16.20;;;3.60;99.90;;;;;;5073944;28;20509;-71
2023/01/24 01:16:18;;;;;;;30.77;17.73;;;3.70;99.90;;;;;;5091518;28;20044;-71
2023/01/24 01:18:49;;;;;;;29.05;16.30;;;3.80;99.90;;;;;;5091397;28;20524;-71
2023/01/24 01:21:17;;;;;;;28.58;16.63;;;3.80;99.90;;;;;;5091379;28;20050;-71
2023/01/24 01:23:43;;;;;;;25.92;16.95;;;3.70;99.90;;;;;;5090630;28;20085;-71
2023/01/24 01:26:16;;;;;;;31.95;18.88;;;3.80;99.90;;;;;;5090853;28;20039;-71
2023/01/24 01:28:42;;;;;;;;;;;3.80;99.90;;;;;;5091745;28;20505;-71
2023/01/24 01:31:07;;;;;;;29.77;16.83;;;3.70;99.90;;;;;;5091296;28;19916;-71
2023/01/24 01:33:33;;;;;;;27.92;15.60;;;3.80;99.90;;;;;;5090598;28;20086;-71
2023/01/24 01:35:59;;;;;;;31.70;17.58;;;3.70;99.90;;;;;;5091113;28;20519;-71
2023/01/24 01:38:27;;;;;;;30.95;16.15;;;3.80;99.90;;;;;;5074132;28;20528;-71
2023/01/24 01:40:53;;;;;;;30.42;16.80;;;3.80;99.90;;;;;;5091016;28;20036;-71
2023/01/24 01:43:24;;;;;;;26.63;15.55;;;3.80;99.90;;;;;;5090263;28;20036;-72
2023/01/24 01:45:57;;;;;;;26.50;16.45;;;3.90;99.90;;;;;;5091297;28;20059;-71
2023/01/24 01:48:43;;;;;;;26.13;16.20;;;3.80;99.90;;;;;;5090866;28;20047;-71
2023/01/24 01:51:27;;;;;;;28.50;16.67;;;3.80;99.90;;;;;;5091246;28;20044;-71
2023/01/24 01:54:07;;;;;;;23.23;14.57;;;3.80;99.90;;;;;;5090343;28;20455;-71
2023/01/24 01:56:45;;;;;;;26.10;15.85;;;4.00;99.90;;;;;;5090757;28;20048;-71
2023/01/24 01:59:22;;;;;;;28.15;16.13;;;3.90;99.90;;;;;;5091234;28;20394;-71
2023/01/24 02:01:50;;;;;;;29.50;16.17;;;3.90;99.90;;;;;;5073934;28;20071;-71
2023/01/24 02:04:22;;;;;;;26.45;15.63;;;4.00;99.90;;;;;;5073083;28;20513;-71
2023/01/24 02:06:59;;;;;;;27.73;17.67;;;4.00;99.90;;;;;;5090614;28;20040;-71
2023/01/24 02:09:28;;;;;;;28.85;16.55;;;3.90;99.90;;;;;;5073773;28;20047;-71
2023/01/24 02:11:58;;;;;;;31.17;17.33;;;3.90;99.90;;;;;;5090539;28;20089;-71
2023/01/24 02:17:10;;;;;;;28.92;15.95;;;3.90;99.90;;;;;;5090265;28;20544;-71
2023/01/24 02:19:59;;;;;;;26.35;15.43;;;4.00;99.90;;;;;;5090682;28;20040;-71
2023/01/24 02:22:48;;;;;;;24.38;14.77;;;3.80;99.90;;;;;;5089648;28;20420;-72
2023/01/24 02:25:54;;;;;;;28.27;16.20;;;3.80;99.90;;;;;;5090446;28;20124;-71
2023/01/24 02:28:20;;;;;;;22.85;14.70;;;4.00;99.90;;;;;;5090347;28;20129;-71
2023/01/24 02:30:46;;;;;;;26.00;14.80;;;3.80;99.90;;;;;;5090430;28;20044;-71
2023/01/24 02:33:18;;;;;;;24.50;14.98;;;3.90;99.90;;;;;;5089642;28;20044;-74
2023/01/24 02:35:44;;;;;;;28.55;15.93;;;3.90;99.90;;;;;;5090609;28;20474;-74
2023/01/24 02:38:22;;;;;;;28.98;17.02;;;4.00;99.90;;;;;;5090325;28;20127;-73
2023/01/24 02:40:51;;;;;;;24.25;15.02;;;3.80;99.90;;;;;;5096096;28;20032;-71
2023/01/24 02:43:20;;;;;;;26.58;15.23;;;3.90;99.90;;;;;;5094036;28;20447;-71
2023/01/24 02:45:46;;;;;;;21.85;14.48;;;3.90;99.90;;;;;;5094499;28;20093;-71
2023/01/24 02:48:11;;;;;;;25.27;15.63;;;3.80;99.90;;;;;;5094339;28;20448;-71
2023/01/24 02:53:30;;;;;;;31.02;17.52;;;3.80;99.90;;;;;;5093509;28;20079;-71
2023/01/24 02:58:49;;;;;;;30.10;17.38;;;3.90;99.90;;;;;;5094372;28;20405;-71
2023/01/24 03:01:15;;;;;;;22.85;15.40;;;3.70;99.90;;;;;;5094052;28;20040;-71
2023/01/24 03:03:42;;;;;;;25.25;16.02;;;3.80;99.90;;;;;;5093270;28;20033;-71
2023/01/24 03:06:08;;;;;;;26.63;16.08;;;3.90;99.90;;;;;;5095474;28;20048;-71
2023/01/24 03:08:35;;;;;;;27.33;16.48;;;3.70;99.90;;;;;;5095105;28;20498;-71
2023/01/24 03:11:01;;;;;;;26.98;15.38;;;3.80;99.90;;;;;;5094221;28;20258;-71
2023/01/24 03:35:22;;;;;;;30.58;18.13;;;3.60;99.90;;;;;;5034797;28;20167;-74
2023/01/24 03:40:33;;;;;;;25.92;15.60;;;3.70;99.90;;;;;;5034550;28;20060;-74
2023/01/24 03:42:59;;;;;;;24.38;15.50;;;3.60;99.90;;;;;;5033794;28;20037;-74
2023/01/24 03:45:27;;;;;;;25.98;15.48;;;3.70;99.90;;;;;;5034751;28;20038;-74
2023/01/24 03:47:56;;;;;;;26.35;14.50;;;3.70;99.90;;;;;;5033172;28;20482;-74
2023/01/24 03:53:13;;;;;;;25.73;14.50;;;3.70;99.90;;;;;;5033504;28;20061;-74
2023/01/24 03:55:39;;;;;;;24.73;15.13;;;3.70;99.90;;;;;;5033042;28;20054;-74
2023/01/24 03:58:05;;;;;;;22.42;14.07;;;3.80;99.90;;;;;;5033012;28;20064;-74
2023/01/24 04:00:31;;;;;;;18.65;13.02;;;3.80;99.90;;;;;;5034159;28;20037;-74
2023/01/24 04:02:57;;;;;;;22.05;13.57;;;3.70;99.90;;;;;;5032253;28;20037;-74
2023/01/24 04:05:23;;;;;;;21.23;13.18;;;3.70;99.90;;;;;;5032822;28;20049;-74
2023/01/24 04:07:49;;;;;;;23.10;14.05;;;3.70;99.90;;;;;;5033803;28;20042;-74
2023/01/24 04:10:15;;;;;;;20.48;13.82;;;3.80;99.90;;;;;;5034242;28;20040;-75
2023/01/24 04:12:42;;;;;;;20.70;13.48;;;3.70;99.90;;;;;;5033192;28;20085;-75
2023/01/24 04:15:08;;;;;;;20.83;13.07;;;3.80;99.90;;;;;;5032903;28;20446;-74
2023/01/24 04:17:33;;;;;;;21.35;13.10;;;3.80;99.90;;;;;;5032390;28;20086;-74
2023/01/24 04:19:59;;;;;;;22.92;14.40;;;3.80;99.90;;;;;;5034324;28;20033;-74
2023/01/24 04:22:25;;;;;;;21.33;13.85;;;3.80;99.90;;;;;;5032920;28;20491;-74
2023/01/24 04:24:50;;;;;;;20.25;12.93;;;3.80;99.90;;;;;;5032734;28;20073;-74
2023/01/24 04:27:16;;;;;;;20.58;12.77;;;3.80;99.90;;;;;;5033789;28;20037;-75
2023/01/24 04:29:42;;;;;;;20.98;14.05;;;3.80;99.90;;;;;;5033666;28;20791;-74
2023/01/24 04:32:08;;;;;;;22.90;14.07;;;3.90;99.90;;;;;;5033618;28;20041;-74
2023/01/24 04:34:33;;;;;;;21.92;13.38;;;3.80;99.90;;;;;;5031729;28;20411;-75
2023/01/24 04:36:59;;;;;;;19.48;12.10;;;3.80;99.90;;;;;;5032135;28;20034;-74
2023/01/24 04:39:25;;;;;;;22.98;13.98;;;3.80;99.90;;;;;;5032119;28;20044;-75
2023/01/24 04:41:50;;;;;;;21.85;14.00;;;3.80;99.90;;;;;;5032186;28;20458;-74
2023/01/24 04:44:16;;;;;;;23.88;15.63;;;3.80;99.90;;;;;;5031411;28;20037;-73
2023/01/24 04:46:41;;;;;;;22.77;13.48;;;3.70;99.90;;;;;;5032208;28;20133;-74
2023/01/24 04:49:07;;;;;;;22.23;13.32;;;3.70;99.90;;;;;;5032098;28;20045;-74
2023/01/24 04:51:32;;;;;;;22.52;14.20;;;3.80;99.90;;;;;;5032606;28;20052;-74
2023/01/24 04:53:58;;;;;;;19.95;13.85;;;3.80;99.90;;;;;;5031527;28;20323;-75
2023/01/24 04:56:23;;;;;;;21.60;13.73;;;3.80;99.90;;;;;;5033237;28;20050;-74
2023/01/24 04:58:49;;;;;;;22.63;15.20;;;3.80;99.90;;;;;;5032994;28;20038;-74
2023/01/24 05:01:14;;;;;;;24.45;13.50;;;3.70;99.90;;;;;;5032287;28;20038;-74
2023/01/24 05:03:40;;;;;;;20.48;13.73;;;3.70;99.90;;;;;;5032379;28;20041;-74
2023/01/24 05:06:06;;;;;;;20.92;14.43;;;3.70;99.90;;;;;;5032189;28;20163;-74
2023/01/24 05:08:31;;;;;;;22.58;14.15;;;3.70;99.90;;;;;;5033121;28;20049;-75
2023/01/24 05:11:01;;;;;;;20.55;14.00;;;3.80;99.90;;;;;;5031873;28;20389;-74
2023/01/24 05:13:27;;;;;;;26.10;15.40;;;3.70;99.90;;;;;;5032200;28;20072;-74
2023/01/24 05:15:52;;;;;;;22.30;15.32;;;3.70;99.90;;;;;;5032792;28;20076;-74
2023/01/24 05:18:19;;;;;;;23.77;14.18;;;3.70;99.90;;;;;;5032535;28;20071;-74
2023/01/24 05:20:45;;;;;;;22.95;14.93;;;3.70;99.90;;;;;;5032789;28;20140;-74
2023/01/24 05:23:10;;;;;;;24.88;14.63;;;3.70;99.90;;;;;;5030617;28;20112;-74
2023/01/24 05:25:36;;;;;;;26.10;15.88;;;3.70;99.90;;;;;;5032448;28;20183;-74
2023/01/24 05:28:01;;;;;;;25.90;15.63;;;3.60;99.90;;;;;;5032495;28;20049;-74
2023/01/24 05:30:27;;;;;;;24.80;16.13;;;3.60;99.90;;;;;;5032490;28;20040;-74
2023/01/24 05:32:56;;;;;;;24.20;16.55;;;3.60;99.90;;;;;;5031697;28;20467;-74
2023/01/24 05:35:22;;;;;;;27.10;17.02;;;3.60;99.90;;;;;;5032188;28;20038;-74
2023/01/24 05:37:47;;;;;;;24.50;14.98;;;3.70;99.90;;;;;;5032422;28;20037;-74
2023/01/24 05:40:13;;;;;;;21.08;13.55;;;3.60;99.90;;;;;;5031234;28;20047;-74
2023/01/24 05:42:41;;;;;;;22.88;14.52;;;3.50;99.90;;;;;;5031610;28;20116;-74
2023/01/24 05:45:08;;;;;;;24.88;14.23;;;3.60;99.90;;;;;;5031172;28;20068;-74
2023/01/24 05:47:33;;;;;;;25.33;14.85;;;3.60;99.90;;;;;;5030600;28;20045;-74
2023/01/24 05:49:59;;;;;;;26.75;15.63;;;3.60;99.90;;;;;;5030747;28;20034;-74
2023/01/24 05:52:24;;;;;;;25.40;15.20;;;3.60;99.90;;;;;;5029958;28;20045;-74
2023/01/24 05:54:53;;;;;;;26.48;17.27;;;3.50;99.90;;;;;;5031819;28;20030;-74
2023/01/24 05:57:19;;;;;;;26.88;15.65;;;3.60;99.90;;;;;;5030629;28;20064;-74
2023/01/24 05:59:44;;;;;;;28.08;17.25;;;3.50;99.90;;;;;;5031814;28;20484;-74
2023/01/24 06:02:10;;;;;;;25.70;15.95;;;3.60;99.90;;;;;;5031802;28;20041;-74
2023/01/24 06:04:35;;;;;;;29.15;17.60;;;3.60;99.90;;;;;;5031636;28;20077;-74
2023/01/24 06:07:01;;;;;;;23.00;15.77;;;3.60;99.90;;;;;;5031677;28;20041;-74
2023/01/24 06:09:27;;;;;;;25.88;16.65;;;3.60;99.90;;;;;;5030753;28;20117;-74
2023/01/24 06:11:52;;;;;;;24.88;16.48;;;3.50;99.90;;;;;;5014053;28;20045;-74
2023/01/24 06:14:18;;;;;;;27.05;17.38;;;3.50;99.90;;;;;;5029567;28;20067;-74
2023/01/24 06:16:44;;;;;;;26.80;16.65;;;3.50;99.90;;;;;;5030414;28;20045;-74
2023/01/24 06:19:11;;;;;;;26.75;17.08;;;3.50;99.90;;;;;;5030441;28;20041;-74
2023/01/24 06:21:49;;;;;;;25.45;16.52;;;3.50;99.90;;;;;;5030323;28;20046;-74
2023/01/24 06:24:23;;;;;;;27.67;17.98;;;3.60;99.90;;;;;;5029546;28;20522;-74
2023/01/24 06:26:50;;;;;;;29.88;18.85;;;3.40;99.90;;;;;;5030384;28;20049;-74
2023/01/24 06:29:16;;;;;;;30.58;18.70;;;3.50;99.90;;;;;;5030206;28;20128;-74
2023/01/24 06:32:04;;;;;;;28.52;17.52;;;3.40;99.90;;;;;;5030318;28;20124;-74
2023/01/24 06:34:57;;;;;;;28.83;19.13;;;3.40;99.90;;;;;;5013233;28;20041;-74
2023/01/24 06:37:40;;;;;;;24.60;16.50;;;3.50;99.90;;;;;;5030161;28;20606;-74
2023/01/24 06:40:08;;;;;;;25.27;16.23;;;3.50;99.90;;;;;;5030590;28;20403;-74
2023/01/24 06:42:34;;;;;;;22.92;15.32;;;3.40;99.90;;;;;;5029439;28;20037;-74
2023/01/24 06:45:00;;;;;;;27.67;16.50;;;3.50;99.90;;;;;;5030229;28;20033;-73
2023/01/24 06:47:27;;;;;;;27.65;16.15;;;3.50;99.90;;;;;;5030163;28;20037;-74
2023/01/24 06:49:53;;;;;;;24.10;15.57;;;3.50;99.90;;;;;;5030231;28;20099;-74
2023/01/24 06:52:19;;;;;;;24.45;14.85;;;3.50;99.90;;;;;;5030600;28;20033;-74
2023/01/24 06:54:44;;;;;;;22.15;15.23;;;3.40;99.90;;;;;;5031251;28;20388;-74
2023/01/24 06:57:10;;;;;;;22.85;15.68;;;3.50;99.90;;;;;;5031460;28;20406;-74
2023/01/24 06:59:35;;;;;;;25.15;16.15;;;3.50;99.90;;;;;;5031444;28;20083;-74
2023/01/24 07:02:01;;;;;;;22.48;14.40;;;3.40;99.90;;;;;;5013978;28;20069;-74
2023/01/24 07:04:27;;;;;;;24.90;15.98;;;3.40;99.90;;;;;;5030783;28;20041;-74
2023/01/24 07:06:52;;;;;;;23.88;15.20;;;3.40;99.90;;;;;;5031183;28;20045;-74
2023/01/24 07:09:22;;;;;;;23.95;14.95;;;3.40;99.90;;;;;;5031341;28;20068;-74
2023/01/24 07:11:52;;;;;;;22.13;14.80;;;3.40;99.90;;;;;;5031363;28;20125;-74
2023/01/24 07:14:20;;;;;;;22.92;15.75;;;3.50;99.90;;;;;;5029252;28;20044;-74
2023/01/24 07:16:47;;;;;;;22.92;15.57;;;3.40;99.90;;;;;;5031069;28;20084;-74
2023/01/24 07:19:15;;;;;;;24.88;15.75;;;3.40;99.90;;;;;;5030891;28;20133;-74
2023/01/24 07:21:41;;;;;;;24.05;15.50;;;3.50;99.90;;;;;;5030089;28;20509;-74
2023/01/24 07:24:19;;;;;;;20.65;14.65;;;3.50;99.90;;;;;;5030377;28;20073;-74
2023/01/24 07:26:45;;;;;;;23.00;15.50;;;3.50;99.90;;;;;;5034853;28;20045;-74
2023/01/24 07:29:11;;;;;;;25.17;16.55;;;3.40;99.90;;;;;;5034771;28;20041;-73
2023/01/24 07:31:37;;;;;;;22.98;15.57;;;3.40;99.90;;;;;;5033722;28;20076;-74
2023/01/24 07:34:03;;;;;;;27.02;17.33;;;3.40;99.90;;;;;;5032581;28;20060;-74
2023/01/24 07:36:29;;;;;;;23.30;15.35;;;3.50;99.90;;;;;;5033306;28;20415;-73
2023/01/24 07:38:55;;;;;;;24.73;16.63;;;3.50;99.90;;;;;;5033253;28;20373;-74
2023/01/24 07:41:21;;;;;;;26.98;17.50;;;3.50;99.90;;;;;;5033922;28;20033;-73
2023/01/24 07:43:47;;;;;;;25.95;16.42;;;3.50;99.90;;;;;;5032945;28;20048;-74
2023/01/24 07:46:12;;;;;;;24.25;15.10;;;3.50;99.90;;;;;;5033441;28;20053;-74
2023/01/24 07:48:38;;;;;;;22.77;15.43;;;3.50;99.90;;;;;;5033037;28;20047;-74
2023/01/24 07:51:04;;;;;;;21.33;15.15;;;3.40;99.90;;;;;;5033149;28;20114;-73
2023/01/24 07:53:29;;;;;;;24.73;15.70;;;3.50;99.90;;;;;;5032651;28;20037;-74
2023/01/24 07:55:58;;;;;;;25.15;15.88;;;3.50;99.90;;;;;;5033133;28;20210;-73
2023/01/24 07:58:24;;;;;;;23.95;15.90;;;3.50;99.90;;;;;;5033171;28;20487;-73
2023/01/24 08:00:49;;;;;;;23.63;15.95;;;3.50;99.90;;;;;;5032956;28;20095;-74
2023/01/24 08:03:15;;;;;;;24.30;16.40;;;3.50;99.90;;;;;;5033343;28;20043;-74
2023/01/24 08:05:40;;;;;;;22.08;15.23;;;3.50;99.90;;;;;;5033097;28;20045;-74
2023/01/24 08:08:06;;;;;;;19.88;14.43;;;3.40;99.90;;;;;;5033138;28;20155;-73
2023/01/24 08:10:31;;;;;;;23.33;15.70;;;3.50;99.90;;;;;;5032811;28;20503;-73
2023/01/24 08:12:57;;;;;;;25.88;17.05;;;3.40;99.90;;;;;;5032071;28;20045;-73
2023/01/24 08:15:23;;;;;;;23.85;15.88;;;3.50;99.90;;;;;;5032510;28;20136;-73
2023/01/24 08:17:48;;;;;;;24.70;16.13;;;3.40;99.90;;;;;;5032588;28;20038;-73
2023/01/24 08:20:14;;;;;;;23.15;15.65;;;3.50;99.90;;;;;;5032698;28;20143;-79
2023/01/24 08:22:41;;;;;;;23.15;16.38;;;3.40;99.90;;;;;;5031802;28;20499;-73
2023/01/24 08:25:08;;;;;;;22.60;15.85;;;3.50;99.90;;;;;;5032762;28;20042;-74
2023/01/24 08:27:34;;;;;;;24.10;15.30;;;3.40;99.90;;;;;;5032579;28;20049;-74
2023/01/24 08:29:59;;;;;;;19.60;13.65;;;3.50;99.90;;;;;;5032363;28;20033;-74
2023/01/24 08:32:25;;;;;;;18.35;14.40;;;3.50;99.90;;;;;;5032803;28;20041;-74
2023/01/24 08:34:50;;;;;;;20.20;12.93;;;3.40;99.90;;;;;;5032274;28;20551;-74
2023/01/24 08:37:16;;;;;;;19.35;12.20;;;3.40;99.90;;;;;;5032087;28;20049;-74
2023/01/24 08:39:42;;;;;;;17.65;12.77;;;3.40;99.90;;;;;;5032091;28;20073;-74
2023/01/24 08:42:08;;;;;;;18.92;13.35;;;3.40;99.90;;;;;;5032099;28;20041;-74
2023/01/24 08:44:34;;;;;;;16.70;12.20;;;3.40;99.90;;;;;;5032494;28;20072;-74
2023/01/24 08:46:59;;;;;;;17.33;12.00;;;3.50;99.90;;;;;;5031870;28;20523;-74
2023/01/24 08:49:25;;;;;;;18.77;11.52;;;3.40;99.90;;;;;;5033274;28;20403;-73
2023/01/24 08:51:58;;;;;;;16.17;11.00;;;3.50;99.90;;;;;;5033212;28;20038;-73
2023/01/24 08:54:32;;;;;;;16.88;11.00;;;3.40;99.90;;;;;;5032400;28;20041;-74
2023/01/24 08:56:57;;;;;;;18.15;11.90;;;3.50;99.90;;;;;;5033027;28;20416;-74
2023/01/24 08:59:23;;;;;;;20.85;11.05;;;3.40;99.90;;;;;;5032778;28;20037;-74
2023/01/24 09:01:49;;;;;;;16.95;10.35;;;3.50;99.90;;;;;;5031328;28;20069;-74
2023/01/24 09:04:14;;;;;;;15.98;10.18;;;3.50;99.90;;;;;;5032011;28;20034;-74
2023/01/24 09:06:40;;;;;;;18.15;11.98;;;3.40;99.90;;;;;;5031636;28;20183;-73
2023/01/24 09:09:05;;;;;;;16.02;10.88;;;3.40;99.90;;;;;;5032922;28;20129;-74
2023/01/24 09:11:31;;;;;;;16.98;10.52;;;3.40;99.90;;;;;;5033086;28;20045;-74
2023/01/24 09:13:57;;;;;;;15.05;9.68;;;3.40;99.90;;;;;;5030910;28;20483;-74
2023/01/24 09:16:23;;;;;;;17.17;10.80;;;3.50;99.90;;;;;;5033278;28;20044;-75
2023/01/24 09:18:50;;;;;;;15.63;9.32;;;3.40;99.90;;;;;;5061291;22;20044;-69
2023/01/24 09:21:17;;;;;;;15.98;10.20;;;3.50;99.90;;;;;;5051407;28;20067;-69
2023/01/24 09:23:43;;;;;;;16.00;10.25;;;3.50;99.90;;;;;;5051761;28;20069;-69
2023/01/24 09:26:09;;;;;;;15.90;9.98;;;3.40;99.90;;;;;;5051096;28;20068;-69
2023/01/24 09:28:34;;;;;;;16.58;9.80;;;3.40;99.90;;;;;;5052575;28;20113;-68
2023/01/24 09:31:01;;;;;;;18.88;11.13;;;3.50;99.90;;;;;;5051006;28;20047;-69
2023/01/24 09:33:26;;;;;;;17.85;10.65;;;3.50;99.90;;;;;;5050347;28;20495;-71
2023/01/24 09:35:53;;;;;;;17.35;10.57;;;3.60;99.90;;;;;;5051276;28;20145;-72
2023/01/24 09:38:18;;;;;;;16.98;10.43;;;3.50;99.90;;;;;;5034210;28;20063;-69
2023/01/24 09:41:11;;;;;;;15.98;9.93;;;3.60;99.90;;;;;;5052033;28;20510;-69
2023/01/24 09:43:52;;;;;;;14.02;9.27;;;3.50;99.90;;;;;;5051421;28;20175;-69
2023/01/24 09:46:38;;;;;;;15.38;8.90;;;3.50;99.90;;;;;;5051962;28;20045;-72
2023/01/24 09:49:16;;;;;;;14.30;9.75;;;3.60;99.90;;;;;;5051683;28;20118;-71
2023/01/24 09:51:52;;;;;;;17.13;10.50;;;3.50;99.90;;;;;;5052376;28;20041;-72
2023/01/24 09:54:48;;;;;;;18.10;10.82;;;3.50;99.90;;;;;;5051513;28;20123;-71
2023/01/24 09:57:25;;;;;;;17.55;9.75;;;3.50;99.90;;;;;;5050643;28;20041;-71
2023/01/24 09:59:55;;;;;;;16.05;9.75;;;3.50;99.90;;;;;;5050506;28;20040;-71
2023/01/24 10:02:21;;;;;;;16.58;9.98;;;3.60;99.90;;;;;;5051512;28;20044;-71
2023/01/24 10:04:49;;;;;;;17.45;10.60;;;3.60;99.90;;;;;;5050551;28;20069;-72
2023/01/24 10:07:44;;;;;;;14.70;9.98;;;3.50;99.90;;;;;;5033924;28;20045;-71
2023/01/24 10:10:15;;;;;;;16.20;9.70;;;3.60;99.90;;;;;;5034024;28;20051;-71
2023/01/24 10:13:02;;;;;;;15.93;9.93;;;3.50;99.90;;;;;;5051280;28;20080;-72
2023/01/24 10:15:40;;;;;;;16.88;10.57;;;3.50;99.90;;;;;;5050239;28;20098;-72
2023/01/24 10:18:22;;;;;;;16.02;10.02;;;3.60;99.90;;;;;;5050221;28;20048;-72
2023/01/24 10:21:21;;;;;;;15.75;10.35;;;3.60;99.90;;;;;;5050457;28;20498;-72
2023/01/24 10:23:59;;;;;;;15.60;9.65;;;3.60;99.90;;;;;;5033130;28;20049;-71
2023/01/24 10:26:32;;;;;;;17.35;10.05;;;3.60;99.90;;;;;;5051596;28;20039;-72
2023/01/24 10:29:09;;;;;;;14.52;9.45;;;3.60;99.90;;;;;;5051391;28;20048;-71
2023/01/24 10:31:42;;;;;;;17.35;9.48;;;3.60;99.90;;;;;;5051912;28;20049;-71
2023/01/24 10:34:26;;;;;;;16.33;9.27;;;3.60;99.90;;;;;;5049714;28;20044;-71
2023/01/24 10:36:57;;;;;;;18.30;9.70;;;3.70;99.90;;;;;;5051450;28;20076;-72
2023/01/24 10:39:24;;;;;;;15.30;10.15;;;3.60;99.90;;;;;;5051268;28;20037;-71
2023/01/24 10:41:49;;;;;;;17.40;11.02;;;3.60;99.90;;;;;;5050074;28;20048;-69
2023/01/24 10:44:23;;;;;;;30.88;10.93;;;3.70;99.90;;;;;;5032687;28;20045;-69
2023/01/24 10:47:13;;;;;;;14.90;9.40;;;3.60;99.90;;;;;;5051383;28;20507;-71
2023/01/24 10:49:51;;;;;;;19.90;10.95;;;3.60;99.90;;;;;;5049853;28;20047;-72
2023/01/24 10:52:19;;;;;;;14.93;10.23;;;3.60;99.90;;;;;;5033007;28;20037;-70
2023/01/24 10:54:48;;;;;;;19.92;10.25;;;3.60;99.90;;;;;;5050603;28;20576;-70
2023/01/24 10:57:23;;;;;;;15.68;10.45;;;3.60;99.90;;;;;;5049801;28;20045;-71
2023/01/24 10:59:48;;;;;;;16.00;11.02;;;3.70;99.90;;;;;;5052354;28;20060;-70
2023/01/24 11:02:24;;;;;;;17.33;9.98;;;3.60;99.90;;;;;;5053548;28;20495;-69
2023/01/24 11:05:02;;;;;;;19.73;11.93;;;3.60;99.90;;;;;;5053889;28;20044;-70
2023/01/24 11:07:31;;;;;;;18.95;10.25;;;3.60;99.90;;;;;;5053587;28;20048;-70
2023/01/24 11:10:01;;;;;;;17.50;10.57;;;3.70;99.90;;;;;;5054729;28;20041;-70
2023/01/24 11:12:28;;;;;;;15.63;10.00;;;3.70;99.90;;;;;;5053929;28;20052;-69
2023/01/24 11:14:53;;;;;;;16.23;9.82;;;3.70;99.90;;;;;;5053440;28;20116;-70
2023/01/24 11:17:32;;;;;;;21.20;10.63;;;3.70;99.90;;;;;;5054934;28;20163;-70
2023/01/24 11:20:22;;;;;;;19.30;10.82;;;3.70;99.90;;;;;;5053233;28;20036;-70
2023/01/24 11:22:50;;;;;;;18.25;11.38;;;3.70;99.90;;;;;;5053897;28;20045;-70
2023/01/24 11:25:18;;;;;;;16.58;10.10;;;3.70;99.90;;;;;;5054319;28;20041;-70
2023/01/24 11:27:48;;;;;;;17.65;10.23;;;3.70;99.90;;;;;;5053136;28;20037;-70
2023/01/24 11:30:18;;;;;;;15.38;9.82;;;3.80;99.90;;;;;;5053188;28;20040;-70
2023/01/24 11:33:06;;;;;;;18.05;10.75;;;3.70;99.90;;;;;;5053733;28;20044;-70
2023/01/24 11:35:36;;;;;;;17.52;10.75;;;3.70;99.90;;;;;;5054120;28;20525;-70
2023/01/24 11:38:25;;;;;;;15.80;10.43;;;3.70;99.90;;;;;;5052801;28;20488;-70
2023/01/24 11:41:12;;;;;;;17.77;11.25;;;3.80;99.90;;;;;;5054388;28;20470;-70
2023/01/24 11:44:10;;;;;;;16.95;11.20;;;3.70;99.90;;;;;;5053486;28;20106;-70
2023/01/24 11:46:56;;;;;;;17.05;10.73;;;3.80;99.90;;;;;;5052752;28;20041;-70
2023/01/24 11:49:54;;;;;;;18.55;10.73;;;3.70;99.90;;;;;;5054115;28;20048;-70
2023/01/24 11:52:28;;;;;;;18.05;11.57;;;3.70;99.90;;;;;;5052157;28;20047;-70
2023/01/24 11:55:15;;;;;;;18.30;10.57;;;3.70;99.90;;;;;;5054176;28;20049;-70
2023/01/24 11:58:16;;;;;;;17.27;10.85;;;3.70;99.90;;;;;;5052808;28;20056;-76
2023/01/24 12:01:14;;;;;;;16.50;10.35;;;3.70;99.90;;;;;;5046804;28;20041;-77
2023/01/24 12:04:00;;;;;;;17.52;10.70;;;4.00;99.90;;;;;;5053225;28;20037;-77
2023/01/24 12:06:31;;;;;;;16.58;10.32;;;4.10;99.90;;;;;;5012399;28;20426;-75
2023/01/24 12:09:21;;;;;;;18.98;12.32;;;4.10;99.90;;;;;;5052650;28;20071;-76
2023/01/24 12:11:58;;;;;;;18.15;10.77;;;4.30;99.90;;;;;;5052098;28;20072;-75
2023/01/24 12:14:46;;;;;;;17.95;10.75;;;4.20;99.90;;;;;;5051742;28;20392;-74
2023/01/24 12:17:49;;;;;;;16.40;10.75;;;4.40;99.90;;;;;;5051941;28;20052;-74
2023/01/24 12:20:29;;;;;;;19.42;12.18;;;4.40;99.90;;;;;;5052084;28;20076;-75
2023/01/24 12:22:57;;;;;;;17.70;11.13;;;4.50;99.90;;;;;;5052777;28;20045;-75
2023/01/24 12:25:30;;;;;;;19.58;11.15;;;4.40;99.90;;;;;;5052378;28;20048;-75
2023/01/24 12:27:59;;;;;;;16.98;10.43;;;4.30;99.90;;;;;;5052051;28;20073;-75
2023/01/24 12:30:50;;;;;;;16.92;10.30;;;4.40;99.90;;;;;;5052311;28;20499;-76
2023/01/24 12:33:31;;;;;;;15.57;10.70;;;4.40;99.90;;;;;;5051650;28;20128;-76
2023/01/24 12:36:29;;;;;;;15.50;10.65;;;4.50;99.90;;;;;;5051743;28;20037;-76
2023/01/24 12:38:59;;;;;;;17.73;10.38;;;4.50;99.90;;;;;;5053040;28;20069;-75
2023/01/24 12:41:32;;;;;;;19.63;12.10;;;4.60;99.90;;;;;;5053692;28;20037;-76
2023/01/24 12:44:09;;;;;;;16.42;10.77;;;4.60;99.90;;;;;;5053974;28;20410;-76
2023/01/24 12:46:50;;;;;;;18.90;11.95;;;4.60;99.90;;;;;;5052627;28;20127;-76
2023/01/24 12:49:45;;;;;;;17.83;11.15;;;4.70;99.90;;;;;;5053222;28;20579;-75
2023/01/24 12:52:38;;;;;;;16.92;10.55;;;4.60;99.90;;;;;;5066789;28;20048;-74
2023/01/24 12:55:11;;;;;;;18.83;12.48;;;4.60;99.90;;;;;;5057850;28;20033;-75
2023/01/24 12:57:48;;;;;;;18.30;11.45;;;4.60;99.90;;;;;;5046113;28;20089;-75
2023/01/24 13:00:20;;;;;;;19.25;10.85;;;4.60;99.90;;;;;;5064404;28;20065;-79
2023/01/24 13:02:48;;;;;;;16.77;10.85;;;4.60;99.90;;;;;;5050038;28;20044;-77
2023/01/24 13:05:42;;;;;;;15.98;10.48;;;4.60;99.90;;;;;;5061119;28;20060;-76
2023/01/24 13:08:32;;;;;;;16.33;11.60;;;4.60;99.90;;;;;;5053775;28;20125;-77
2023/01/24 13:11:17;;;;;;;19.85;12.02;;;4.40;99.90;;;;;;5054197;28;20090;-76
2023/01/24 13:13:50;;;;;;;17.98;11.77;;;4.40;99.90;;;;;;5053111;28;20083;-77
2023/01/24 13:16:27;;;;;;;20.30;12.00;;;4.40;99.90;;;;;;5054673;28;20546;-77
2023/01/24 13:19:11;;;;;;;20.60;12.70;;;4.40;99.90;;;;;;5053417;28;20037;-77
2023/01/24 13:22:09;;;;;;;17.92;12.45;;;4.30;99.90;;;;;;5052269;28;20049;-77
2023/01/24 13:24:48;;;;;;;22.50;12.25;;;4.30;99.90;;;;;;5051795;28;20045;-77
2023/01/24 13:27:29;;;;;;;19.80;13.15;;;4.20;99.90;;;;;;5052355;28;20055;-77
2023/01/24 13:30:02;;;;;;;18.98;12.25;;;4.20;99.90;;;;;;5035533;28;20080;-77
2023/01/24 13:32:30;;;;;;;;;;;4.20;99.90;;;;;;5034576;28;20041;-77